sensor_id;sensor_type;location;lat;lon;timestamp;pressure;altitude;pressure_sealevel;temperature;humidity
65718;BME280;52445;52.466;-1.016;2022-12-20T00:00:17;98739.72;;;12.81;86.51
65718;BME280;52445;52.466;-1.016;2022-12-20T00:02:43;98743.19;;;12.81;85.09
65718;BME280;52445;52.466;-1.016;2022-12-20T00:05:10;98747.56;;;12.79;85.64
65718;BME280;52445;52.466;-1.016;2022-12-20T00:07:37;98740.66;;;12.80;85.17
65718;BME280;52445;52.466;-1.016;2022-12-20T00:10:04;98740.69;;;12.78;85.84
65718;BME280;52445;52.466;-1.016;2022-12-20T00:12:31;98744.25;;;12.76;85.85
65718;BME280;52445;52.466;-1.016;2022-12-20T00:14:58;98736.50;;;12.74;85.53
65718;BME280;52445;52.466;-1.016;2022-12-20T00:17:24;98738.28;;;12.72;85.31
65718;BME280;52445;52.466;-1.016;2022-12-20T00:19:51;98735.63;;;12.73;85.45
65718;BME280;52445;52.466;-1.016;2022-12-20T00:22:18;98736.50;;;12.74;85.44
65718;BME280;52445;52.466;-1.016;2022-12-20T00:24:44;98739.03;;;12.76;85.34
65718;BME280;52445;52.466;-1.016;2022-12-20T00:27:11;98738.19;;;12.75;85.93
65718;BME280;52445;52.466;-1.016;2022-12-20T00:29:37;98743.38;;;12.75;85.16
65718;BME280;52445;52.466;-1.016;2022-12-20T00:32:04;98738.28;;;12.72;85.45
65718;BME280;52445;52.466;-1.016;2022-12-20T00:34:31;98736.69;;;12.68;85.56
65718;BME280;52445;52.466;-1.016;2022-12-20T00:36:57;98749.56;;;12.71;85.94
65718;BME280;52445;52.466;-1.016;2022-12-20T00:39:24;98739.97;;;12.73;86.13
65718;BME280;52445;52.466;-1.016;2022-12-20T00:41:51;98740.09;;;12.70;86.07
65718;BME280;52445;52.466;-1.016;2022-12-20T00:44:17;98727.03;;;12.71;85.10
65718;BME280;52445;52.466;-1.016;2022-12-20T00:46:44;98734.91;;;12.70;85.58
65718;BME280;52445;52.466;-1.016;2022-12-20T00:49:11;98739.09;;;12.74;85.12
65718;BME280;52445;52.466;-1.016;2022-12-20T00:51:37;98736.69;;;12.68;85.04
65718;BME280;52445;52.466;-1.016;2022-12-20T00:54:04;98735.00;;;12.67;85.59
65718;BME280;52445;52.466;-1.016;2022-12-20T00:56:31;98729.72;;;12.70;84.93
65718;BME280;52445;52.466;-1.016;2022-12-20T00:58:58;98729.56;;;12.73;84.72
65718;BME280;52445;52.466;-1.016;2022-12-20T01:01:28;98725.34;;;12.70;85.95
65718;BME280;52445;52.466;-1.016;2022-12-20T01:03:56;98733.41;;;12.63;85.50
65718;BME280;52445;52.466;-1.016;2022-12-20T01:06:23;98731.59;;;12.65;86.08
65718;BME280;52445;52.466;-1.016;2022-12-20T01:08:52;98726.28;;;12.68;84.93
65718;BME280;52445;52.466;-1.016;2022-12-20T01:11:23;98724.59;;;12.67;85.22
65718;BME280;52445;52.466;-1.016;2022-12-20T01:13:52;98722.91;;;12.66;84.79
65718;BME280;52445;52.466;-1.016;2022-12-20T01:16:22;98720.31;;;12.66;84.82
65718;BME280;52445;52.466;-1.016;2022-12-20T01:18:50;98726.38;;;12.65;85.14
65718;BME280;52445;52.466;-1.016;2022-12-20T01:21:20;98721.19;;;12.65;84.30
65718;BME280;52445;52.466;-1.016;2022-12-20T01:23:46;98719.59;;;12.60;84.79
65718;BME280;52445;52.466;-1.016;2022-12-20T01:26:16;98717.00;;;12.60;84.73
65718;BME280;52445;52.466;-1.016;2022-12-20T01:28:45;98712.75;;;12.58;85.12
65718;BME280;52445;52.466;-1.016;2022-12-20T01:31:14;98714.41;;;12.60;85.62
65718;BME280;52445;52.466;-1.016;2022-12-20T01:33:42;98721.38;;;12.60;84.89
65718;BME280;52445;52.466;-1.016;2022-12-20T01:36:12;98730.03;;;12.59;85.22
65718;BME280;52445;52.466;-1.016;2022-12-20T01:38:40;98721.50;;;12.55;85.79
65718;BME280;52445;52.466;-1.016;2022-12-20T01:41:07;98729.25;;;12.57;85.28
65718;BME280;52445;52.466;-1.016;2022-12-20T01:43:58;98729.38;;;12.52;85.39
65718;BME280;52445;52.466;-1.016;2022-12-20T01:46:29;98720.59;;;12.56;84.47
65718;BME280;52445;52.466;-1.016;2022-12-20T01:52:11;98735.50;;;12.51;84.73
65718;BME280;52445;52.466;-1.016;2022-12-20T01:54:45;98721.50;;;12.55;84.42
65718;BME280;52445;52.466;-1.016;2022-12-20T01:57:19;98719.69;;;12.57;84.95
65718;BME280;52445;52.466;-1.016;2022-12-20T01:59:47;98719.69;;;12.57;84.09
65718;BME280;52445;52.466;-1.016;2022-12-20T02:02:16;98725.78;;;12.56;84.57
65718;BME280;52445;52.466;-1.016;2022-12-20T02:04:43;98719.69;;;12.57;84.73
65718;BME280;52445;52.466;-1.016;2022-12-20T02:07:16;98728.38;;;12.56;84.66
65718;BME280;52445;52.466;-1.016;2022-12-20T02:09:44;98728.47;;;12.53;85.33
65718;BME280;52445;52.466;-1.016;2022-12-20T02:12:14;98718.09;;;12.53;84.08
65718;BME280;52445;52.466;-1.016;2022-12-20T02:17:29;98721.59;;;12.52;85.08
65718;BME280;52445;52.466;-1.016;2022-12-20T02:22:51;98710.41;;;12.50;84.34
65718;BME280;52445;52.466;-1.016;2022-12-20T02:30:56;98706.19;;;12.46;84.98
65718;BME280;52445;52.466;-1.016;2022-12-20T02:33:24;98707.78;;;12.50;84.96
65718;BME280;52445;52.466;-1.016;2022-12-20T02:35:52;98700.13;;;12.47;85.34
65718;BME280;52445;52.466;-1.016;2022-12-20T02:43:50;98706.16;;;12.47;84.95
65718;BME280;52445;52.466;-1.016;2022-12-20T02:46:38;98698.28;;;12.51;85.97
65718;BME280;52445;52.466;-1.016;2022-12-20T02:49:11;98695.66;;;12.51;85.56
65718;BME280;52445;52.466;-1.016;2022-12-20T02:51:41;98693.13;;;12.49;85.29
65718;BME280;52445;52.466;-1.016;2022-12-20T02:54:09;98687.94;;;12.49;85.23
65718;BME280;52445;52.466;-1.016;2022-12-20T02:56:41;98678.34;;;12.51;84.51
65718;BME280;52445;52.466;-1.016;2022-12-20T02:59:13;98685.34;;;12.49;85.16
65718;BME280;52445;52.466;-1.016;2022-12-20T03:01:51;98680.19;;;12.47;85.55
65718;BME280;52445;52.466;-1.016;2022-12-20T03:04:21;98682.63;;;12.52;85.14
65718;BME280;52445;52.466;-1.016;2022-12-20T03:07:05;98681.50;;;12.34;86.33
65718;BME280;52445;52.466;-1.016;2022-12-20T03:09:34;98674.22;;;12.45;85.04
65718;BME280;52445;52.466;-1.016;2022-12-20T03:12:02;98673.34;;;12.45;85.65
65718;BME280;52445;52.466;-1.016;2022-12-20T03:14:29;98669.06;;;12.44;85.01
65718;BME280;52445;52.466;-1.016;2022-12-20T03:16:55;98658.53;;;12.49;85.82
65718;BME280;52445;52.466;-1.016;2022-12-20T03:19:22;98655.22;;;12.43;85.14
65718;BME280;52445;52.466;-1.016;2022-12-20T03:21:49;98661.97;;;12.49;85.41
65718;BME280;52445;52.466;-1.016;2022-12-20T03:24:16;98664.47;;;12.52;84.65
65718;BME280;52445;52.466;-1.016;2022-12-20T03:26:43;98660.97;;;12.53;86.03
65718;BME280;52445;52.466;-1.016;2022-12-20T03:29:10;98653.34;;;12.49;84.80
65718;BME280;52445;52.466;-1.016;2022-12-20T03:31:37;98653.38;;;12.47;85.49
65718;BME280;52445;52.466;-1.016;2022-12-20T03:34:04;98644.75;;;12.46;85.37
65718;BME280;52445;52.466;-1.016;2022-12-20T03:36:31;98653.25;;;12.50;85.96
65718;BME280;52445;52.466;-1.016;2022-12-20T03:38:58;98656.84;;;12.46;86.31
65718;BME280;52445;52.466;-1.016;2022-12-20T03:41:24;98631.03;;;12.43;85.95
65718;BME280;52445;52.466;-1.016;2022-12-20T03:43:51;98639.59;;;12.45;86.55
65718;BME280;52445;52.466;-1.016;2022-12-20T03:46:18;98635.22;;;12.47;86.24
65718;BME280;52445;52.466;-1.016;2022-12-20T03:48:45;98630.03;;;12.47;86.09
65718;BME280;52445;52.466;-1.016;2022-12-20T03:51:11;98632.72;;;12.44;86.33
65718;BME280;52445;52.466;-1.016;2022-12-20T03:53:38;98626.59;;;12.45;85.42
65718;BME280;52445;52.466;-1.016;2022-12-20T03:56:05;98617.91;;;12.46;86.14
65718;BME280;52445;52.466;-1.016;2022-12-20T03:58:32;98623.19;;;12.44;86.04
65718;BME280;52445;52.466;-1.016;2022-12-20T04:00:58;98616.22;;;12.45;85.20
65718;BME280;52445;52.466;-1.016;2022-12-20T04:03:25;98617.91;;;12.46;85.47
65718;BME280;52445;52.466;-1.016;2022-12-20T04:05:52;98637.00;;;12.45;86.64
65718;BME280;52445;52.466;-1.016;2022-12-20T04:08:18;98585.28;;;12.39;85.27
65718;BME280;52445;52.466;-1.016;2022-12-20T04:10:45;98639.97;;;12.05;83.19
65718;BME280;52445;52.466;-1.016;2022-12-20T04:13:31;98666.66;;;11.80;82.26
65718;BME280;52445;52.466;-1.016;2022-12-20T04:15:58;98673.16;;;11.65;81.14
65718;BME280;52445;52.466;-1.016;2022-12-20T04:18:26;98706.94;;;11.32;80.58
65718;BME280;52445;52.466;-1.016;2022-12-20T04:20:53;98700.03;;;10.99;79.30
65718;BME280;52445;52.466;-1.016;2022-12-20T04:23:20;98710.59;;;10.90;79.36
65718;BME280;52445;52.466;-1.016;2022-12-20T04:25:47;98722.38;;;10.67;79.77
65718;BME280;52445;52.466;-1.016;2022-12-20T04:28:13;98715.00;;;10.51;79.53
65718;BME280;52445;52.466;-1.016;2022-12-20T04:30:40;98722.06;;;10.43;80.25
65718;BME280;52445;52.466;-1.016;2022-12-20T04:33:06;98739.56;;;10.32;79.52
65718;BME280;52445;52.466;-1.016;2022-12-20T04:35:33;98749.19;;;10.26;80.95
65718;BME280;52445;52.466;-1.016;2022-12-20T04:37:59;98751.94;;;10.19;80.75
65718;BME280;52445;52.466;-1.016;2022-12-20T04:40:26;98756.50;;;10.07;80.63
65718;BME280;52445;52.466;-1.016;2022-12-20T04:42:53;98763.56;;;9.99;80.50
65718;BME280;52445;52.466;-1.016;2022-12-20T04:45:19;98758.50;;;9.94;80.97
65718;BME280;52445;52.466;-1.016;2022-12-20T04:47:46;98758.69;;;9.85;80.77
65718;BME280;52445;52.466;-1.016;2022-12-20T04:50:13;98770.84;;;9.81;80.38
65718;BME280;52445;52.466;-1.016;2022-12-20T04:52:39;98770.13;;;9.74;80.32
65718;BME280;52445;52.466;-1.016;2022-12-20T04:55:26;98771.88;;;9.71;81.23
65718;BME280;52445;52.466;-1.016;2022-12-20T04:57:52;98773.66;;;9.70;80.81
65718;BME280;52445;52.466;-1.016;2022-12-20T05:00:19;98758.94;;;9.72;80.84
65718;BME280;52445;52.466;-1.016;2022-12-20T05:02:46;98765.06;;;9.68;80.74
65718;BME280;52445;52.466;-1.016;2022-12-20T05:05:13;98766.75;;;9.69;81.39
65718;BME280;52445;52.466;-1.016;2022-12-20T05:07:40;98758.25;;;9.64;80.92
65718;BME280;52445;52.466;-1.016;2022-12-20T05:10:06;98775.44;;;9.65;80.85
65718;BME280;52445;52.466;-1.016;2022-12-20T05:12:33;98778.03;;;9.65;81.59
65718;BME280;52445;52.466;-1.016;2022-12-20T05:15:00;98772.84;;;9.65;80.82
65718;BME280;52445;52.466;-1.016;2022-12-20T05:17:26;98768.56;;;9.64;81.29
65718;BME280;52445;52.466;-1.016;2022-12-20T05:19:53;98768.63;;;9.61;81.47
65718;BME280;52445;52.466;-1.016;2022-12-20T05:22:20;98775.50;;;9.62;80.89
65718;BME280;52445;52.466;-1.016;2022-12-20T05:25:09;98784.16;;;9.61;81.14
65718;BME280;52445;52.466;-1.016;2022-12-20T05:27:55;98791.09;;;9.59;81.05
65718;BME280;52445;52.466;-1.016;2022-12-20T05:30:23;98791.09;;;9.59;81.13
65718;BME280;52445;52.466;-1.016;2022-12-20T05:32:50;98796.25;;;9.59;81.53
65718;BME280;52445;52.466;-1.016;2022-12-20T05:35:17;98792.78;;;9.60;81.58
65718;BME280;52445;52.466;-1.016;2022-12-20T05:37:44;98803.06;;;9.63;81.76
65718;BME280;52445;52.466;-1.016;2022-12-20T05:40:11;98825.47;;;9.64;81.68
65718;BME280;52445;52.466;-1.016;2022-12-20T05:42:37;98837.50;;;9.65;81.21
65718;BME280;52445;52.466;-1.016;2022-12-20T05:45:05;98840.06;;;9.67;81.54
65718;BME280;52445;52.466;-1.016;2022-12-20T05:47:31;98832.31;;;9.65;81.66
65718;BME280;52445;52.466;-1.016;2022-12-20T05:49:59;98838.34;;;9.66;81.81
65718;BME280;52445;52.466;-1.016;2022-12-20T05:52:26;98834.91;;;9.65;81.49
65718;BME280;52445;52.466;-1.016;2022-12-20T05:54:53;98835.78;;;9.64;81.88
65718;BME280;52445;52.466;-1.016;2022-12-20T05:57:20;98834.09;;;9.63;82.11
65718;BME280;52445;52.466;-1.016;2022-12-20T05:59:46;98834.13;;;9.61;81.74
65718;BME280;52445;52.466;-1.016;2022-12-20T06:02:13;98848.00;;;9.57;81.46
65718;BME280;52445;52.466;-1.016;2022-12-20T06:04:40;98844.63;;;9.50;81.80
65718;BME280;52445;52.466;-1.016;2022-12-20T06:07:07;98835.31;;;9.43;81.35
65718;BME280;52445;52.466;-1.016;2022-12-20T06:09:33;98843.13;;;9.38;81.36
65718;BME280;52445;52.466;-1.016;2022-12-20T06:12:00;98846.69;;;9.31;81.52
65718;BME280;52445;52.466;-1.016;2022-12-20T06:14:27;98855.41;;;9.25;81.41
65718;BME280;52445;52.466;-1.016;2022-12-20T06:16:53;98860.66;;;9.19;81.46
65718;BME280;52445;52.466;-1.016;2022-12-20T06:19:20;98869.41;;;9.12;80.96
65718;BME280;52445;52.466;-1.016;2022-12-20T06:21:47;98863.44;;;9.08;81.02
65718;BME280;52445;52.466;-1.016;2022-12-20T06:24:13;98850.56;;;9.04;81.52
65718;BME280;52445;52.466;-1.016;2022-12-20T06:26:40;98857.53;;;9.00;81.35
65718;BME280;52445;52.466;-1.016;2022-12-20T06:29:08;98865.34;;;8.95;81.31
65718;BME280;52445;52.466;-1.016;2022-12-20T06:31:39;98883.47;;;8.92;81.44
65718;BME280;52445;52.466;-1.016;2022-12-20T06:34:06;98891.28;;;8.87;81.43
65718;BME280;52445;52.466;-1.016;2022-12-20T06:36:33;98892.19;;;8.85;81.77
65718;BME280;52445;52.466;-1.016;2022-12-20T06:39:00;98900.88;;;8.81;81.30
65718;BME280;52445;52.466;-1.016;2022-12-20T06:41:35;98906.06;;;8.78;81.23
65718;BME280;52445;52.466;-1.016;2022-12-20T06:44:02;98907.78;;;8.76;81.62
65718;BME280;52445;52.466;-1.016;2022-12-20T06:46:29;98911.25;;;8.74;81.50
65718;BME280;52445;52.466;-1.016;2022-12-20T06:48:56;98916.47;;;8.71;82.04
65718;BME280;52445;52.466;-1.016;2022-12-20T06:51:23;98923.41;;;8.69;81.84
65718;BME280;52445;52.466;-1.016;2022-12-20T06:53:50;98926.00;;;8.68;81.81
65718;BME280;52445;52.466;-1.016;2022-12-20T06:56:16;98938.91;;;8.66;82.15
65718;BME280;52445;52.466;-1.016;2022-12-20T06:58:44;98948.38;;;8.64;81.66
65718;BME280;52445;52.466;-1.016;2022-12-20T07:01:12;98961.31;;;8.61;82.18
65718;BME280;52445;52.466;-1.016;2022-12-20T07:03:39;98964.78;;;8.60;81.87
65718;BME280;52445;52.466;-1.016;2022-12-20T07:06:06;98966.56;;;8.58;81.89
65718;BME280;52445;52.466;-1.016;2022-12-20T07:08:32;98970.03;;;8.54;81.90
65718;BME280;52445;52.466;-1.016;2022-12-20T07:11:04;98976.91;;;8.52;82.11
65718;BME280;52445;52.466;-1.016;2022-12-20T07:13:32;98975.19;;;8.51;81.92
65718;BME280;52445;52.466;-1.016;2022-12-20T07:16:01;98976.94;;;8.48;81.53
65718;BME280;52445;52.466;-1.016;2022-12-20T07:18:28;98979.53;;;8.45;81.90
65718;BME280;52445;52.466;-1.016;2022-12-20T07:21:00;98983.88;;;8.43;82.13
65718;BME280;52445;52.466;-1.016;2022-12-20T07:23:26;98989.06;;;8.40;81.83
65718;BME280;52445;52.466;-1.016;2022-12-20T07:25:54;98983.94;;;8.37;81.50
65718;BME280;52445;52.466;-1.016;2022-12-20T07:28:22;98994.28;;;8.34;81.56
65718;BME280;52445;52.466;-1.016;2022-12-20T07:30:51;99001.19;;;8.32;81.63
65718;BME280;52445;52.466;-1.016;2022-12-20T07:33:19;98998.66;;;8.27;81.92
65718;BME280;52445;52.466;-1.016;2022-12-20T07:35:45;98994.41;;;8.25;81.88
65718;BME280;52445;52.466;-1.016;2022-12-20T07:38:19;98996.16;;;8.22;81.83
65718;BME280;52445;52.466;-1.016;2022-12-20T07:40:46;99003.06;;;8.17;81.63
65718;BME280;52445;52.466;-1.016;2022-12-20T07:43:12;99001.38;;;8.15;81.75
65718;BME280;52445;52.466;-1.016;2022-12-20T07:45:39;99018.59;;;8.11;81.54
65718;BME280;52445;52.466;-1.016;2022-12-20T07:48:07;99021.19;;;8.09;81.85
65718;BME280;52445;52.466;-1.016;2022-12-20T07:50:40;99022.09;;;8.07;81.96
65718;BME280;52445;52.466;-1.016;2022-12-20T07:53:07;99024.69;;;8.04;81.73
65718;BME280;52445;52.466;-1.016;2022-12-20T07:55:35;99027.28;;;8.01;82.23
65718;BME280;52445;52.466;-1.016;2022-12-20T07:58:07;99031.59;;;7.97;81.25
65718;BME280;52445;52.466;-1.016;2022-12-20T08:00:35;99042.81;;;7.94;81.92
65718;BME280;52445;52.466;-1.016;2022-12-20T08:03:06;99052.28;;;7.91;81.57
65718;BME280;52445;52.466;-1.016;2022-12-20T08:05:36;99051.44;;;7.87;81.75
65718;BME280;52445;52.466;-1.016;2022-12-20T08:08:04;99062.66;;;7.84;81.88
65718;BME280;52445;52.466;-1.016;2022-12-20T08:10:31;99070.44;;;7.80;81.92
65718;BME280;52445;52.466;-1.016;2022-12-20T08:12:58;99066.13;;;7.77;81.03
65718;BME280;52445;52.466;-1.016;2022-12-20T08:15:27;99070.47;;;7.74;80.99
65718;BME280;52445;52.466;-1.016;2022-12-20T08:17:54;99076.50;;;7.71;81.71
65718;BME280;52445;52.466;-1.016;2022-12-20T08:20:21;99077.38;;;7.68;82.05
65718;BME280;52445;52.466;-1.016;2022-12-20T08:22:47;99078.22;;;7.66;81.26
65718;BME280;52445;52.466;-1.016;2022-12-20T08:25:14;99079.13;;;7.63;81.80
65718;BME280;52445;52.466;-1.016;2022-12-20T08:27:41;99091.16;;;7.61;82.00
65718;BME280;52445;52.466;-1.016;2022-12-20T08:30:08;99098.03;;;7.59;81.27
65718;BME280;52445;52.466;-1.016;2022-12-20T08:32:36;99103.22;;;7.56;81.83
65718;BME280;52445;52.466;-1.016;2022-12-20T08:35:04;99104.06;;;7.55;81.86
65718;BME280;52445;52.466;-1.016;2022-12-20T08:37:30;99102.38;;;7.51;80.92
65718;BME280;52445;52.466;-1.016;2022-12-20T08:39:57;99096.38;;;7.50;80.83
65718;BME280;52445;52.466;-1.016;2022-12-20T08:42:24;99098.91;;;7.56;81.70
65718;BME280;52445;52.466;-1.016;2022-12-20T08:44:50;99103.09;;;7.75;81.41
65718;BME280;52445;52.466;-1.016;2022-12-20T08:47:17;99099.50;;;7.97;81.70
65718;BME280;52445;52.466;-1.016;2022-12-20T08:49:44;99101.88;;;8.26;82.06
65718;BME280;52445;52.466;-1.016;2022-12-20T08:52:13;99101.56;;;8.61;81.90
65718;BME280;52445;52.466;-1.016;2022-12-20T08:54:40;99105.47;;;9.02;81.31
65718;BME280;52445;52.466;-1.016;2022-12-20T08:57:07;99122.13;;;9.46;81.12
65718;BME280;52445;52.466;-1.016;2022-12-20T08:59:34;99126.63;;;9.96;81.18
65718;BME280;52445;52.466;-1.016;2022-12-20T09:02:00;99122.56;;;10.35;79.68
65718;BME280;52445;52.466;-1.016;2022-12-20T09:04:27;99119.41;;;10.71;79.33
65718;BME280;52445;52.466;-1.016;2022-12-20T09:06:54;99126.63;;;11.00;78.69
65718;BME280;52445;52.466;-1.016;2022-12-20T09:09:23;99133.03;;;11.26;79.03
65718;BME280;52445;52.466;-1.016;2022-12-20T09:11:50;99130.66;;;11.56;77.85
65718;BME280;52445;52.466;-1.016;2022-12-20T09:14:17;99139.22;;;12.00;77.12
65718;BME280;52445;52.466;-1.016;2022-12-20T09:16:43;99137.34;;;12.44;76.46
65718;BME280;52445;52.466;-1.016;2022-12-20T09:19:12;99142.47;;;12.81;75.86
65718;BME280;52445;52.466;-1.016;2022-12-20T09:21:39;99144.38;;;13.07;74.67
65718;BME280;52445;52.466;-1.016;2022-12-20T09:24:06;99149.91;;;13.27;75.36
65718;BME280;52445;52.466;-1.016;2022-12-20T09:26:33;99161.44;;;13.49;74.61
65718;BME280;52445;52.466;-1.016;2022-12-20T09:29:01;99153.94;;;13.69;73.25
65718;BME280;52445;52.466;-1.016;2022-12-20T09:31:28;99160.97;;;13.94;73.39
65718;BME280;52445;52.466;-1.016;2022-12-20T09:33:56;99157.25;;;14.30;73.00
65718;BME280;52445;52.466;-1.016;2022-12-20T09:36:24;99161.84;;;14.77;72.31
65718;BME280;52445;52.466;-1.016;2022-12-20T09:38:53;99162.13;;;15.19;71.72
65718;BME280;52445;52.466;-1.016;2022-12-20T09:41:26;99171.03;;;15.61;70.09
65718;BME280;52445;52.466;-1.016;2022-12-20T09:43:54;99174.94;;;15.97;69.98
65718;BME280;52445;52.466;-1.016;2022-12-20T09:46:23;99178.66;;;16.34;69.18
65718;BME280;52445;52.466;-1.016;2022-12-20T09:48:51;99167.69;;;16.69;69.24
65718;BME280;52445;52.466;-1.016;2022-12-20T09:57:13;99187.66;;;17.90;67.44
65718;BME280;52445;52.466;-1.016;2022-12-20T09:59:43;99181.50;;;18.30;66.93
65718;BME280;52445;52.466;-1.016;2022-12-20T10:02:19;99179.09;;;18.43;64.25
65718;BME280;52445;52.466;-1.016;2022-12-20T10:05:14;99176.34;;;18.63;64.29
65718;BME280;52445;52.466;-1.016;2022-12-20T10:10:51;99185.56;;;18.88;62.38
65718;BME280;52445;52.466;-1.016;2022-12-20T10:16:36;99189.31;;;19.36;61.59
65718;BME280;52445;52.466;-1.016;2022-12-20T10:24:29;99189.94;;;19.73;60.01
65718;BME280;52445;52.466;-1.016;2022-12-20T10:26:57;99196.63;;;19.79;58.21
65718;BME280;52445;52.466;-1.016;2022-12-20T10:29:27;99195.97;;;19.75;57.96
65718;BME280;52445;52.466;-1.016;2022-12-20T10:31:58;99194.34;;;19.73;57.74
65718;BME280;52445;52.466;-1.016;2022-12-20T10:34:26;99203.25;;;19.70;57.07
65718;BME280;52445;52.466;-1.016;2022-12-20T10:37:11;99199.41;;;19.60;56.46
65718;BME280;52445;52.466;-1.016;2022-12-20T10:39:42;99199.16;;;19.48;55.96
65718;BME280;52445;52.466;-1.016;2022-12-20T10:45:01;99201.25;;;18.90;55.60
65718;BME280;52445;52.466;-1.016;2022-12-20T10:55:44;99213.03;;;16.68;57.84
65718;BME280;52445;52.466;-1.016;2022-12-20T10:58:20;99206.44;;;16.37;57.88
65718;BME280;52445;52.466;-1.016;2022-12-20T11:00:49;99202.25;;;16.10;58.62
65718;BME280;52445;52.466;-1.016;2022-12-20T11:03:19;99212.16;;;15.78;59.45
65718;BME280;52445;52.466;-1.016;2022-12-20T11:08:31;99217.81;;;15.41;58.59
65718;BME280;52445;52.466;-1.016;2022-12-20T11:11:23;99217.53;;;14.73;60.83
65718;BME280;52445;52.466;-1.016;2022-12-20T11:13:51;99219.28;;;14.45;61.67
65718;BME280;52445;52.466;-1.016;2022-12-20T11:22:00;99205.34;;;13.91;62.46
65718;BME280;52445;52.466;-1.016;2022-12-20T11:30:07;99207.13;;;13.58;64.22
65718;BME280;52445;52.466;-1.016;2022-12-20T11:40:31;99217.28;;;13.68;64.46
65718;BME280;52445;52.466;-1.016;2022-12-20T11:43:12;99214.81;;;13.63;64.83
65718;BME280;52445;52.466;-1.016;2022-12-20T11:51:53;99217.94;;;13.43;64.78
65718;BME280;52445;52.466;-1.016;2022-12-20T11:54:28;99222.50;;;13.34;65.25
65718;BME280;52445;52.466;-1.016;2022-12-20T11:57:00;99207.34;;;13.17;65.28
65718;BME280;52445;52.466;-1.016;2022-12-20T11:59:39;99208.78;;;12.96;65.59
65718;BME280;52445;52.466;-1.016;2022-12-20T12:04:52;99204.59;;;12.55;65.86
65718;BME280;52445;52.466;-1.016;2022-12-20T12:07:22;99198.22;;;12.32;66.37
65718;BME280;52445;52.466;-1.016;2022-12-20T12:10:15;99206.97;;;12.28;66.62
65718;BME280;52445;52.466;-1.016;2022-12-20T12:12:45;99201.91;;;12.22;67.26
65718;BME280;52445;52.466;-1.016;2022-12-20T12:17:53;99209.22;;;12.04;67.65
65718;BME280;52445;52.466;-1.016;2022-12-20T12:20:47;99201.53;;;12.00;67.35
65718;BME280;52445;52.466;-1.016;2022-12-20T12:25:52;99205.94;;;11.96;68.35
65718;BME280;52445;52.466;-1.016;2022-12-20T12:28:20;99212.88;;;11.94;68.34
65718;BME280;52445;52.466;-1.016;2022-12-20T12:30:55;99206.97;;;11.89;68.53
65718;BME280;52445;52.466;-1.016;2022-12-20T12:33:27;99203.63;;;11.82;67.90
65718;BME280;52445;52.466;-1.016;2022-12-20T12:36:32;99210.84;;;11.69;68.10
65718;BME280;52445;52.466;-1.016;2022-12-20T12:44:56;99225.28;;;11.37;68.66
65718;BME280;52445;52.466;-1.016;2022-12-20T13:11:57;99211.63;;;10.79;70.37
65718;BME280;52445;52.466;-1.016;2022-12-20T13:19:50;99206.91;;;11.03;69.65
65718;BME280;52445;52.466;-1.016;2022-12-20T13:22:25;99213.53;;;10.70;70.06
65718;BME280;52445;52.466;-1.016;2022-12-20T13:25:01;99211.03;;;10.63;70.61
65718;BME280;52445;52.466;-1.016;2022-12-20T13:27:32;99205.09;;;10.58;71.21
65718;BME280;52445;52.466;-1.016;2022-12-20T13:32:55;99188.88;;;10.44;70.83
65718;BME280;52445;52.466;-1.016;2022-12-20T13:38:04;99184.59;;;10.41;70.75
65718;BME280;52445;52.466;-1.016;2022-12-20T13:40:59;99184.66;;;10.36;70.75
65718;BME280;52445;52.466;-1.016;2022-12-20T13:43:32;99183.88;;;10.33;71.51
65718;BME280;52445;52.466;-1.016;2022-12-20T13:48:51;99189.13;;;10.28;71.54
65718;BME280;52445;52.466;-1.016;2022-12-20T13:51:22;99186.59;;;10.23;71.86
65718;BME280;52445;52.466;-1.016;2022-12-20T14:01:57;99164.16;;;10.25;71.23
65718;BME280;52445;52.466;-1.016;2022-12-20T14:04:27;99176.34;;;10.17;71.89
65718;BME280;52445;52.466;-1.016;2022-12-20T14:07:08;99174.72;;;10.10;71.47
65718;BME280;52445;52.466;-1.016;2022-12-20T14:09:42;99174.81;;;10.03;71.98
65718;BME280;52445;52.466;-1.016;2022-12-20T14:12:15;99177.53;;;9.96;71.64
65718;BME280;52445;52.466;-1.016;2022-12-20T14:14:52;99185.31;;;9.94;71.67
65718;BME280;52445;52.466;-1.016;2022-12-20T14:17:35;99176.81;;;9.84;71.38
65718;BME280;52445;52.466;-1.016;2022-12-20T14:23:08;99181.25;;;9.74;72.12
65718;BME280;52445;52.466;-1.016;2022-12-20T14:25:45;99184.78;;;9.69;71.55
65718;BME280;52445;52.466;-1.016;2022-12-20T14:28:24;99190.91;;;9.60;72.13
65718;BME280;52445;52.466;-1.016;2022-12-20T14:30:53;99191.78;;;9.59;72.40
65718;BME280;52445;52.466;-1.016;2022-12-20T14:38:44;99209.97;;;9.52;72.15
65718;BME280;52445;52.466;-1.016;2022-12-20T14:41:36;99215.25;;;9.43;71.91
65718;BME280;52445;52.466;-1.016;2022-12-20T14:44:14;99220.41;;;9.43;72.63
65718;BME280;52445;52.466;-1.016;2022-12-20T14:49:36;99218.72;;;9.39;72.68
65718;BME280;52445;52.466;-1.016;2022-12-20T14:54:44;99224.00;;;9.30;73.10
65718;BME280;52445;52.466;-1.016;2022-12-20T15:06:00;99223.44;;;8.98;73.03
65718;BME280;52445;52.466;-1.016;2022-12-20T15:18:49;99227.06;;;8.77;73.32
65718;BME280;52445;52.466;-1.016;2022-12-20T15:23:55;99219.41;;;8.67;73.36
65718;BME280;52445;52.466;-1.016;2022-12-20T15:26:25;99225.47;;;8.61;73.89
65718;BME280;52445;52.466;-1.016;2022-12-20T15:28:53;99219.44;;;8.61;73.65
65718;BME280;52445;52.466;-1.016;2022-12-20T15:31:22;99222.09;;;8.58;73.71
65718;BME280;52445;52.466;-1.016;2022-12-20T15:33:59;99222.09;;;8.53;73.82
65718;BME280;52445;52.466;-1.016;2022-12-20T15:36:28;99218.66;;;8.49;73.92
65718;BME280;52445;52.466;-1.016;2022-12-20T15:38:56;99218.69;;;8.45;74.45
65718;BME280;52445;52.466;-1.016;2022-12-20T15:41:42;99224.75;;;8.42;74.02
65718;BME280;52445;52.466;-1.016;2022-12-20T15:44:21;99232.50;;;8.41;73.91
65718;BME280;52445;52.466;-1.016;2022-12-20T15:46:49;99235.97;;;8.36;74.32
65718;BME280;52445;52.466;-1.016;2022-12-20T15:49:19;99234.25;;;8.34;74.77
65718;BME280;52445;52.466;-1.016;2022-12-20T15:51:48;99233.41;;;8.33;74.52
65718;BME280;52445;52.466;-1.016;2022-12-20T15:54:33;99232.59;;;8.27;74.58
65718;BME280;52445;52.466;-1.016;2022-12-20T15:57:03;99236.88;;;8.28;74.67
65718;BME280;52445;52.466;-1.016;2022-12-20T15:59:32;99248.09;;;8.25;74.12